createdAt,value
2023-05-10T00:06:56.038Z,100448.91
2023-05-10T00:17:17.281Z,100451.16
2023-05-10T00:27:39.072Z,100445.13
2023-05-10T00:38:00.596Z,100437.47
2023-05-10T00:48:22.898Z,100442.28
2023-05-10T00:58:44.846Z,100435.81
2023-05-10T01:09:07.493Z,100445.16
2023-05-10T01:19:30.876Z,100431.91
2023-05-10T01:30:43.917Z,100446.97
2023-05-10T01:41:26.820Z,100437.19
2023-05-10T01:51:55.750Z,100426.59
2023-05-10T02:02:17.259Z,100424.25
2023-05-10T02:12:31.095Z,100426.66
2023-05-10T02:22:53.812Z,100422.59
2023-05-10T02:33:16.227Z,100434.00
2023-05-10T02:43:39.309Z,100428.22
2023-05-10T02:54:05.353Z,100425.66
2023-05-10T03:04:27.269Z,100432.53
2023-05-10T03:15:21.849Z,100431.59
2023-05-10T03:25:44.871Z,100438.03
2023-05-10T03:36:07.696Z,100430.78
2023-05-10T03:46:29.233Z,100432.59
2023-05-10T03:56:50.760Z,100444.25
2023-05-10T04:07:14.704Z,100455.50
2023-05-10T04:17:36.688Z,100460.16
2023-05-10T04:27:58.833Z,100447.44
2023-05-10T04:38:20.878Z,100452.38
2023-05-10T04:48:42.835Z,100448.78
2023-05-10T04:59:04.331Z,100447.94
2023-05-10T05:09:25.818Z,100444.06
2023-05-10T05:19:47.443Z,100447.59
2023-05-10T05:30:09.335Z,100445.16
2023-05-10T05:40:31.002Z,100443.06
2023-05-10T05:50:57.567Z,100438.34
2023-05-10T06:01:19.078Z,100440.19
2023-05-10T06:11:40.619Z,100450.25
2023-05-10T06:22:02.461Z,100438.00
2023-05-10T06:32:25.685Z,100436.22
2023-05-10T06:42:48.017Z,100440.66
2023-05-10T06:53:09.508Z,100436.84
2023-05-10T07:03:31.208Z,100438.34
2023-05-10T07:13:52.699Z,100436.41
2023-05-10T07:24:14.386Z,100442.75
2023-05-10T07:34:35.945Z,100435.78
2023-05-10T07:44:57.873Z,100432.69
2023-05-10T07:55:22.202Z,100425.94
2023-05-10T08:05:44.048Z,100424.09
2023-05-10T08:16:05.552Z,100411.75
2023-05-10T08:26:26.956Z,100405.97
2023-05-10T08:36:48.579Z,100422.19
2023-05-10T08:47:11.118Z,100422.69
2023-05-10T08:57:32.966Z,100419.97
2023-05-10T09:07:54.785Z,100415.19
2023-05-10T09:18:16.634Z,100404.25
2023-05-10T09:28:57.969Z,100402.63
2023-05-10T09:39:19.504Z,100394.78
2023-05-10T09:49:41.670Z,100391.16
2023-05-10T10:00:05.620Z,100387.41
2023-05-10T10:10:35.156Z,100381.28
2023-05-10T10:20:57.482Z,100378.81
2023-05-10T10:31:43.230Z,100384.50
2023-05-10T10:42:05.971Z,100372.66
2023-05-10T10:52:38.735Z,100363.00
2023-05-10T11:03:09.121Z,100364.13
2023-05-10T11:13:36.997Z,100371.16
2023-05-10T11:24:00.235Z,100360.25
2023-05-10T11:34:36.520Z,100345.41
2023-05-10T11:44:58.193Z,100352.75
2023-05-10T11:55:20.525Z,100349.28
2023-05-10T12:05:43.090Z,100343.31
2023-05-10T12:16:17.931Z,100332.13
2023-05-10T12:26:39.576Z,100343.50
2023-05-10T12:37:02.251Z,100344.06
2023-05-10T12:47:23.955Z,100325.63
2023-05-10T12:57:45.818Z,100316.16
2023-05-10T13:08:07.745Z,100296.78
2023-05-10T13:18:29.224Z,100309.97
2023-05-10T13:28:52.798Z,100307.69
2023-05-10T13:39:14.732Z,100304.25
2023-05-10T13:49:36.395Z,100314.13
2023-05-10T13:59:58.652Z,100308.38
2023-05-10T14:10:21.157Z,100296.94
2023-05-10T14:20:42.716Z,100307.25
2023-05-10T14:31:04.341Z,100304.22
2023-05-10T14:41:25.888Z,100302.41
2023-05-10T14:51:47.491Z,100285.06
2023-05-10T15:02:10.043Z,100273.88
2023-05-10T15:12:33.004Z,100278.56
2023-05-10T15:22:54.474Z,100265.22
2023-05-10T15:33:17.108Z,100275.00
2023-05-10T15:43:38.831Z,100274.13
2023-05-10T15:54:07.326Z,100272.50
2023-05-10T16:04:30.230Z,100262.28
2023-05-10T16:14:52.109Z,100269.00
2023-05-10T16:25:15.922Z,100267.19
2023-05-10T16:35:37.333Z,100272.91
2023-05-10T16:45:58.953Z,100274.19
2023-05-10T16:56:22.292Z,100283.91
2023-05-10T17:06:44.010Z,100287.44
2023-05-10T17:17:05.904Z,100292.78
2023-05-10T17:27:29.055Z,100308.31
2023-05-10T17:37:50.578Z,100317.63
2023-05-10T17:48:11.997Z,100326.00
2023-05-10T17:58:34.172Z,100334.88
2023-05-10T18:08:56.216Z,100342.13
2023-05-10T18:19:25.357Z,100363.56
2023-05-10T18:29:47.218Z,100359.25
2023-05-10T18:40:11.224Z,100363.91
2023-05-10T18:50:32.862Z,100368.69
2023-05-10T19:00:54.249Z,100368.06
2023-05-10T19:11:15.954Z,100365.22
2023-05-10T19:21:37.655Z,100383.03
2023-05-10T19:32:00.820Z,100385.66
2023-05-10T19:42:22.352Z,100393.94
2023-05-10T19:52:44.854Z,100389.13
2023-05-10T20:03:09.010Z,100391.19
2023-05-10T20:13:31.213Z,100393.59
2023-05-10T20:23:53.226Z,100396.66
2023-05-10T20:34:14.843Z,100390.47
2023-05-10T20:44:36.529Z,100395.22
2023-05-10T20:54:58.275Z,100396.63
2023-05-10T21:05:19.890Z,100395.56
2023-05-10T21:15:41.692Z,100401.56
2023-05-10T21:26:04.111Z,100400.25
2023-05-10T21:36:26.906Z,100394.09
2023-05-10T21:46:48.540Z,100408.00
2023-05-10T21:57:09.757Z,100403.28
2023-05-10T22:07:32.101Z,100402.81
2023-05-10T22:17:53.596Z,100407.69
2023-05-10T22:28:15.042Z,100403.06
2023-05-10T22:38:37.481Z,100409.78
2023-05-10T22:48:59.758Z,100409.06
2023-05-10T22:59:21.770Z,100416.91
2023-05-10T23:09:43.425Z,100417.97
2023-05-10T23:20:05.581Z,100417.44
2023-05-10T23:30:27.665Z,100423.69
2023-05-10T23:40:50.769Z,100443.88
2023-05-10T23:51:11.937Z,100436.56
